sensor_id;sensor_type;location;lat;lon;timestamp;P1;durP1;ratioP1;P2;durP2;ratioP2
64791;SDS011;51226;47.504;19.074;2022-08-21T00:02:19;6.45;;;4.07;;
64791;SDS011;51226;47.504;19.074;2022-08-21T00:05:25;5.68;;;3.65;;
64791;SDS011;51226;47.504;19.074;2022-08-21T00:08:28;3.97;;;3.67;;
64791;SDS011;51226;47.504;19.074;2022-08-21T00:11:31;5.05;;;3.80;;
64791;SDS011;51226;47.504;19.074;2022-08-21T00:14:34;3.85;;;3.47;;
64791;SDS011;51226;47.504;19.074;2022-08-21T00:17:37;3.87;;;3.58;;
64791;SDS011;51226;47.504;19.074;2022-08-21T00:23:44;4.35;;;3.95;;
64791;SDS011;51226;47.504;19.074;2022-08-21T00:26:47;4.55;;;3.92;;
64791;SDS011;51226;47.504;19.074;2022-08-21T00:29:50;4.50;;;4.05;;
64791;SDS011;51226;47.504;19.074;2022-08-21T00:32:53;6.45;;;5.35;;
64791;SDS011;51226;47.504;19.074;2022-08-21T00:35:57;4.18;;;3.87;;
64791;SDS011;51226;47.504;19.074;2022-08-21T00:39:00;3.67;;;3.37;;
64791;SDS011;51226;47.504;19.074;2022-08-21T00:42:04;4.20;;;3.80;;
64791;SDS011;51226;47.504;19.074;2022-08-21T00:45:07;5.07;;;3.65;;
64791;SDS011;51226;47.504;19.074;2022-08-21T00:48:11;4.03;;;3.62;;
64791;SDS011;51226;47.504;19.074;2022-08-21T00:51:15;5.28;;;3.90;;
64791;SDS011;51226;47.504;19.074;2022-08-21T00:54:28;4.10;;;3.67;;
64791;SDS011;51226;47.504;19.074;2022-08-21T00:57:38;3.78;;;3.55;;
64791;SDS011;51226;47.504;19.074;2022-08-21T01:00:48;4.15;;;3.75;;
64791;SDS011;51226;47.504;19.074;2022-08-21T01:03:52;3.70;;;3.28;;
64791;SDS011;51226;47.504;19.074;2022-08-21T01:06:55;4.62;;;3.70;;
64791;SDS011;51226;47.504;19.074;2022-08-21T01:13:01;4.78;;;4.37;;
64791;SDS011;51226;47.504;19.074;2022-08-21T01:16:05;5.15;;;4.32;;
64791;SDS011;51226;47.504;19.074;2022-08-21T01:19:11;5.60;;;5.10;;
64791;SDS011;51226;47.504;19.074;2022-08-21T01:22:15;5.10;;;4.60;;
64791;SDS011;51226;47.504;19.074;2022-08-21T01:25:18;4.82;;;4.43;;
64791;SDS011;51226;47.504;19.074;2022-08-21T01:28:24;4.62;;;4.28;;
64791;SDS011;51226;47.504;19.074;2022-08-21T01:31:29;5.47;;;4.55;;
64791;SDS011;51226;47.504;19.074;2022-08-21T01:37:35;4.93;;;4.43;;
64791;SDS011;51226;47.504;19.074;2022-08-21T01:40:38;5.18;;;4.75;;
64791;SDS011;51226;47.504;19.074;2022-08-21T01:43:41;5.28;;;4.15;;
64791;SDS011;51226;47.504;19.074;2022-08-21T01:46:45;5.45;;;4.95;;
64791;SDS011;51226;47.504;19.074;2022-08-21T01:49:48;6.50;;;5.35;;
64791;SDS011;51226;47.504;19.074;2022-08-21T01:52:50;7.37;;;5.45;;
64791;SDS011;51226;47.504;19.074;2022-08-21T01:55:54;7.78;;;5.40;;
64791;SDS011;51226;47.504;19.074;2022-08-21T01:58:56;5.90;;;5.35;;
64791;SDS011;51226;47.504;19.074;2022-08-21T02:01:59;6.30;;;5.62;;
64791;SDS011;51226;47.504;19.074;2022-08-21T02:05:03;8.25;;;5.90;;
64791;SDS011;51226;47.504;19.074;2022-08-21T02:08:07;7.43;;;5.65;;
64791;SDS011;51226;47.504;19.074;2022-08-21T02:11:10;6.35;;;5.75;;
64791;SDS011;51226;47.504;19.074;2022-08-21T02:14:13;9.23;;;6.37;;
64791;SDS011;51226;47.504;19.074;2022-08-21T02:20:54;10.00;;;6.72;;
64791;SDS011;51226;47.504;19.074;2022-08-21T02:23:58;7.25;;;6.35;;
64791;SDS011;51226;47.504;19.074;2022-08-21T02:27:01;7.10;;;5.62;;
64791;SDS011;51226;47.504;19.074;2022-08-21T02:33:07;7.95;;;5.97;;
64791;SDS011;51226;47.504;19.074;2022-08-21T02:36:12;6.30;;;5.70;;
64791;SDS011;51226;47.504;19.074;2022-08-21T02:39:15;7.12;;;6.32;;
64791;SDS011;51226;47.504;19.074;2022-08-21T02:45:31;7.10;;;6.40;;
64791;SDS011;51226;47.504;19.074;2022-08-21T02:48:34;7.97;;;6.43;;
64791;SDS011;51226;47.504;19.074;2022-08-21T02:51:39;9.05;;;6.97;;
64791;SDS011;51226;47.504;19.074;2022-08-21T02:54:41;7.70;;;6.53;;
64791;SDS011;51226;47.504;19.074;2022-08-21T02:57:44;8.05;;;7.25;;
64791;SDS011;51226;47.504;19.074;2022-08-21T03:03:49;7.67;;;6.50;;
64791;SDS011;51226;47.504;19.074;2022-08-21T03:09:54;9.20;;;6.30;;
64791;SDS011;51226;47.504;19.074;2022-08-21T03:16:00;8.68;;;6.50;;
64791;SDS011;51226;47.504;19.074;2022-08-21T03:19:06;8.98;;;7.07;;
64791;SDS011;51226;47.504;19.074;2022-08-21T03:25:11;7.43;;;6.73;;
64791;SDS011;51226;47.504;19.074;2022-08-21T03:28:15;7.55;;;6.85;;
64791;SDS011;51226;47.504;19.074;2022-08-21T03:31:20;7.70;;;6.78;;
64791;SDS011;51226;47.504;19.074;2022-08-21T03:37:26;9.43;;;6.87;;
64791;SDS011;51226;47.504;19.074;2022-08-21T03:40:29;9.82;;;7.72;;
64791;SDS011;51226;47.504;19.074;2022-08-21T03:43:32;7.37;;;6.62;;
64791;SDS011;51226;47.504;19.074;2022-08-21T03:46:35;8.23;;;7.12;;
64791;SDS011;51226;47.504;19.074;2022-08-21T03:49:37;9.23;;;7.03;;
64791;SDS011;51226;47.504;19.074;2022-08-21T03:52:42;8.20;;;6.65;;
64791;SDS011;51226;47.504;19.074;2022-08-21T03:55:45;9.43;;;7.60;;
64791;SDS011;51226;47.504;19.074;2022-08-21T03:58:49;9.60;;;7.80;;
64791;SDS011;51226;47.504;19.074;2022-08-21T04:01:56;10.25;;;7.72;;
64791;SDS011;51226;47.504;19.074;2022-08-21T04:05:02;8.27;;;7.15;;
64791;SDS011;51226;47.504;19.074;2022-08-21T04:08:05;8.73;;;7.82;;
64791;SDS011;51226;47.504;19.074;2022-08-21T04:11:09;9.07;;;7.82;;
64791;SDS011;51226;47.504;19.074;2022-08-21T04:14:14;8.77;;;7.75;;
64791;SDS011;51226;47.504;19.074;2022-08-21T04:17:18;11.27;;;7.87;;
64791;SDS011;51226;47.504;19.074;2022-08-21T04:20:21;9.25;;;7.55;;
64791;SDS011;51226;47.504;19.074;2022-08-21T04:23:24;9.68;;;8.10;;
64791;SDS011;51226;47.504;19.074;2022-08-21T04:26:27;9.73;;;8.23;;
64791;SDS011;51226;47.504;19.074;2022-08-21T04:29:30;9.15;;;7.45;;
64791;SDS011;51226;47.504;19.074;2022-08-21T04:32:37;8.82;;;7.90;;
64791;SDS011;51226;47.504;19.074;2022-08-21T04:35:41;9.25;;;8.35;;
64791;SDS011;51226;47.504;19.074;2022-08-21T04:38:44;9.57;;;8.07;;
64791;SDS011;51226;47.504;19.074;2022-08-21T04:41:47;10.10;;;8.40;;
64791;SDS011;51226;47.504;19.074;2022-08-21T04:47:54;9.07;;;7.35;;
64791;SDS011;51226;47.504;19.074;2022-08-21T04:51:05;9.10;;;8.05;;
64791;SDS011;51226;47.504;19.074;2022-08-21T04:54:11;8.65;;;7.80;;
64791;SDS011;51226;47.504;19.074;2022-08-21T04:57:16;9.82;;;8.10;;
64791;SDS011;51226;47.504;19.074;2022-08-21T05:00:20;9.55;;;8.02;;
64791;SDS011;51226;47.504;19.074;2022-08-21T05:03:26;10.48;;;7.72;;
64791;SDS011;51226;47.504;19.074;2022-08-21T05:06:31;8.85;;;6.90;;
64791;SDS011;51226;47.504;19.074;2022-08-21T05:09:37;9.48;;;8.25;;
64791;SDS011;51226;47.504;19.074;2022-08-21T05:12:41;8.00;;;7.22;;
64791;SDS011;51226;47.504;19.074;2022-08-21T05:15:45;8.70;;;7.80;;
64791;SDS011;51226;47.504;19.074;2022-08-21T05:18:48;8.93;;;7.28;;
64791;SDS011;51226;47.504;19.074;2022-08-21T05:21:52;8.98;;;6.80;;
64791;SDS011;51226;47.504;19.074;2022-08-21T05:24:56;7.55;;;6.70;;
64791;SDS011;51226;47.504;19.074;2022-08-21T05:27:59;7.28;;;6.28;;
64791;SDS011;51226;47.504;19.074;2022-08-21T05:31:02;8.75;;;6.12;;
64791;SDS011;51226;47.504;19.074;2022-08-21T05:34:05;6.95;;;6.10;;
64791;SDS011;51226;47.504;19.074;2022-08-21T05:37:10;8.30;;;6.50;;
64791;SDS011;51226;47.504;19.074;2022-08-21T05:40:13;10.40;;;6.75;;
64791;SDS011;51226;47.504;19.074;2022-08-21T05:43:23;7.15;;;6.45;;
64791;SDS011;51226;47.504;19.074;2022-08-21T05:49:29;6.40;;;5.85;;
64791;SDS011;51226;47.504;19.074;2022-08-21T05:52:31;6.72;;;5.97;;
64791;SDS011;51226;47.504;19.074;2022-08-21T05:55:35;7.72;;;5.72;;
64791;SDS011;51226;47.504;19.074;2022-08-21T05:58:45;6.72;;;5.47;;
64791;SDS011;51226;47.504;19.074;2022-08-21T06:01:48;6.55;;;5.47;;
64791;SDS011;51226;47.504;19.074;2022-08-21T06:04:51;5.70;;;5.20;;
64791;SDS011;51226;47.504;19.074;2022-08-21T06:07:54;6.62;;;5.47;;
64791;SDS011;51226;47.504;19.074;2022-08-21T06:10:57;5.95;;;5.45;;
64791;SDS011;51226;47.504;19.074;2022-08-21T06:14:02;6.28;;;5.78;;
64791;SDS011;51226;47.504;19.074;2022-08-21T06:17:06;6.55;;;5.28;;
64791;SDS011;51226;47.504;19.074;2022-08-21T06:20:11;5.82;;;5.22;;
64791;SDS011;51226;47.504;19.074;2022-08-21T06:23:15;5.80;;;5.20;;
64791;SDS011;51226;47.504;19.074;2022-08-21T06:29:20;7.43;;;6.62;;
64791;SDS011;51226;47.504;19.074;2022-08-21T06:32:24;6.70;;;6.05;;
64791;SDS011;51226;47.504;19.074;2022-08-21T06:35:26;7.62;;;5.78;;
64791;SDS011;51226;47.504;19.074;2022-08-21T06:38:31;6.10;;;5.25;;
64791;SDS011;51226;47.504;19.074;2022-08-21T06:41:37;7.00;;;5.10;;
64791;SDS011;51226;47.504;19.074;2022-08-21T06:44:41;5.93;;;5.30;;
64791;SDS011;51226;47.504;19.074;2022-08-21T06:47:45;5.53;;;5.03;;
64791;SDS011;51226;47.504;19.074;2022-08-21T06:53:50;5.90;;;5.40;;
64791;SDS011;51226;47.504;19.074;2022-08-21T06:56:53;5.72;;;5.22;;
64791;SDS011;51226;47.504;19.074;2022-08-21T06:59:56;6.43;;;5.82;;
64791;SDS011;51226;47.504;19.074;2022-08-21T07:03:02;6.37;;;5.78;;
64791;SDS011;51226;47.504;19.074;2022-08-21T07:06:08;7.43;;;5.57;;
64791;SDS011;51226;47.504;19.074;2022-08-21T07:09:12;6.45;;;5.90;;
64791;SDS011;51226;47.504;19.074;2022-08-21T07:12:15;5.60;;;5.07;;
64791;SDS011;51226;47.504;19.074;2022-08-21T07:15:18;5.78;;;4.95;;
64791;SDS011;51226;47.504;19.074;2022-08-21T07:18:21;5.50;;;5.03;;
64791;SDS011;51226;47.504;19.074;2022-08-21T07:21:24;5.72;;;5.22;;
64791;SDS011;51226;47.504;19.074;2022-08-21T07:24:28;5.65;;;5.12;;
64791;SDS011;51226;47.504;19.074;2022-08-21T07:27:31;6.07;;;5.35;;
64791;SDS011;51226;47.504;19.074;2022-08-21T07:30:34;5.80;;;5.30;;
64791;SDS011;51226;47.504;19.074;2022-08-21T07:33:37;5.20;;;4.70;;
64791;SDS011;51226;47.504;19.074;2022-08-21T07:36:39;6.70;;;5.47;;
64791;SDS011;51226;47.504;19.074;2022-08-21T07:39:42;9.35;;;8.45;;
64791;SDS011;51226;47.504;19.074;2022-08-21T07:42:47;8.98;;;5.53;;
64791;SDS011;51226;47.504;19.074;2022-08-21T07:45:53;5.60;;;5.10;;
64791;SDS011;51226;47.504;19.074;2022-08-21T07:48:56;5.47;;;4.65;;
64791;SDS011;51226;47.504;19.074;2022-08-21T07:52:00;6.70;;;4.90;;
64791;SDS011;51226;47.504;19.074;2022-08-21T07:55:04;9.73;;;7.15;;
64791;SDS011;51226;47.504;19.074;2022-08-21T07:58:08;8.10;;;7.30;;
64791;SDS011;51226;47.504;19.074;2022-08-21T08:01:11;5.05;;;4.65;;
64791;SDS011;51226;47.504;19.074;2022-08-21T08:04:17;5.15;;;4.65;;
64791;SDS011;51226;47.504;19.074;2022-08-21T08:07:24;5.00;;;4.35;;
64791;SDS011;51226;47.504;19.074;2022-08-21T08:10:27;5.25;;;3.90;;
64791;SDS011;51226;47.504;19.074;2022-08-21T08:13:30;4.82;;;4.53;;
64791;SDS011;51226;47.504;19.074;2022-08-21T08:16:33;5.70;;;4.37;;
64791;SDS011;51226;47.504;19.074;2022-08-21T08:19:36;5.53;;;4.62;;
64791;SDS011;51226;47.504;19.074;2022-08-21T08:22:39;5.35;;;4.50;;
64791;SDS011;51226;47.504;19.074;2022-08-21T08:25:43;5.55;;;5.05;;
64791;SDS011;51226;47.504;19.074;2022-08-21T08:28:46;5.50;;;5.00;;
64791;SDS011;51226;47.504;19.074;2022-08-21T08:31:49;4.87;;;4.45;;
64791;SDS011;51226;47.504;19.074;2022-08-21T08:34:53;5.60;;;4.45;;
64791;SDS011;51226;47.504;19.074;2022-08-21T08:37:56;7.35;;;5.10;;
64791;SDS011;51226;47.504;19.074;2022-08-21T08:41:07;5.10;;;4.10;;
64791;SDS011;51226;47.504;19.074;2022-08-21T08:44:13;5.00;;;4.22;;
64791;SDS011;51226;47.504;19.074;2022-08-21T08:47:16;4.95;;;4.53;;
64791;SDS011;51226;47.504;19.074;2022-08-21T08:50:21;5.28;;;4.40;;
64791;SDS011;51226;47.504;19.074;2022-08-21T08:53:36;4.90;;;4.50;;
64791;SDS011;51226;47.504;19.074;2022-08-21T08:56:49;5.37;;;4.95;;
64791;SDS011;51226;47.504;19.074;2022-08-21T08:59:56;8.63;;;5.72;;
64791;SDS011;51226;47.504;19.074;2022-08-21T09:03:01;8.93;;;6.68;;
64791;SDS011;51226;47.504;19.074;2022-08-21T09:06:16;6.00;;;5.12;;
64791;SDS011;51226;47.504;19.074;2022-08-21T09:15:56;5.05;;;4.65;;
64791;SDS011;51226;47.504;19.074;2022-08-21T09:26:11;5.43;;;4.93;;
64791;SDS011;51226;47.504;19.074;2022-08-21T09:29:15;5.87;;;5.37;;
64791;SDS011;51226;47.504;19.074;2022-08-21T09:32:32;6.15;;;5.20;;
64791;SDS011;51226;47.504;19.074;2022-08-21T09:35:53;7.50;;;5.12;;
64791;SDS011;51226;47.504;19.074;2022-08-21T09:39:00;5.18;;;4.78;;
64791;SDS011;51226;47.504;19.074;2022-08-21T09:42:04;5.97;;;5.20;;
64791;SDS011;51226;47.504;19.074;2022-08-21T09:45:20;5.30;;;4.80;;
64791;SDS011;51226;47.504;19.074;2022-08-21T09:48:39;7.35;;;6.12;;
64791;SDS011;51226;47.504;19.074;2022-08-21T09:51:51;7.93;;;7.10;;
64791;SDS011;51226;47.504;19.074;2022-08-21T09:54:56;7.68;;;7.07;;
64791;SDS011;51226;47.504;19.074;2022-08-21T09:57:59;6.60;;;5.43;;
64791;SDS011;51226;47.504;19.074;2022-08-21T10:01:06;5.80;;;5.20;;
64791;SDS011;51226;47.504;19.074;2022-08-21T10:04:22;5.82;;;5.07;;
64791;SDS011;51226;47.504;19.074;2022-08-21T10:07:30;5.37;;;4.87;;
64791;SDS011;51226;47.504;19.074;2022-08-21T10:10:36;6.12;;;5.53;;
64791;SDS011;51226;47.504;19.074;2022-08-21T10:20:20;5.78;;;5.28;;
64791;SDS011;51226;47.504;19.074;2022-08-21T10:30:48;6.00;;;5.30;;
64791;SDS011;51226;47.504;19.074;2022-08-21T10:34:04;7.68;;;7.10;;
64791;SDS011;51226;47.504;19.074;2022-08-21T10:41:17;5.87;;;5.37;;
64791;SDS011;51226;47.504;19.074;2022-08-21T10:48:31;6.28;;;5.70;;
64791;SDS011;51226;47.504;19.074;2022-08-21T10:51:54;5.45;;;5.05;;
64791;SDS011;51226;47.504;19.074;2022-08-21T10:55:25;5.87;;;5.35;;
64791;SDS011;51226;47.504;19.074;2022-08-21T10:58:45;5.75;;;5.15;;
64791;SDS011;51226;47.504;19.074;2022-08-21T11:02:02;7.62;;;6.85;;
64791;SDS011;51226;47.504;19.074;2022-08-21T11:05:25;9.57;;;8.68;;
64791;SDS011;51226;47.504;19.074;2022-08-21T11:08:40;6.68;;;6.07;;
64791;SDS011;51226;47.504;19.074;2022-08-21T11:18:38;6.00;;;5.50;;
64791;SDS011;51226;47.504;19.074;2022-08-21T11:21:48;6.43;;;5.90;;
64791;SDS011;51226;47.504;19.074;2022-08-21T11:28:59;6.97;;;6.30;;
64791;SDS011;51226;47.504;19.074;2022-08-21T11:35:50;6.80;;;6.20;;
64791;SDS011;51226;47.504;19.074;2022-08-21T11:45:44;6.22;;;4.95;;
64791;SDS011;51226;47.504;19.074;2022-08-21T11:52:53;6.20;;;5.70;;
64791;SDS011;51226;47.504;19.074;2022-08-21T11:56:12;6.50;;;4.93;;
64791;SDS011;51226;47.504;19.074;2022-08-21T11:59:25;7.57;;;5.28;;
64791;SDS011;51226;47.504;19.074;2022-08-21T12:02:52;8.75;;;8.02;;
64791;SDS011;51226;47.504;19.074;2022-08-21T12:06:07;11.73;;;10.25;;
64791;SDS011;51226;47.504;19.074;2022-08-21T12:12:36;6.72;;;5.50;;
64791;SDS011;51226;47.504;19.074;2022-08-21T12:15:40;5.45;;;5.05;;
64791;SDS011;51226;47.504;19.074;2022-08-21T12:18:43;6.32;;;5.55;;
64791;SDS011;51226;47.504;19.074;2022-08-21T12:21:53;6.75;;;5.82;;
64791;SDS011;51226;47.504;19.074;2022-08-21T12:25:10;7.68;;;5.65;;
64791;SDS011;51226;47.504;19.074;2022-08-21T12:28:25;7.85;;;5.93;;
64791;SDS011;51226;47.504;19.074;2022-08-21T12:31:29;6.45;;;5.85;;
64791;SDS011;51226;47.504;19.074;2022-08-21T12:34:35;6.70;;;5.75;;
64791;SDS011;51226;47.504;19.074;2022-08-21T12:37:46;9.10;;;8.07;;
64791;SDS011;51226;47.504;19.074;2022-08-21T12:41:03;6.75;;;6.10;;
64791;SDS011;51226;47.504;19.074;2022-08-21T12:44:23;7.32;;;6.62;;
64791;SDS011;51226;47.504;19.074;2022-08-21T12:51:32;6.30;;;5.70;;
64791;SDS011;51226;47.504;19.074;2022-08-21T12:54:42;7.00;;;6.30;;
64791;SDS011;51226;47.504;19.074;2022-08-21T12:57:46;8.88;;;7.97;;
64791;SDS011;51226;47.504;19.074;2022-08-21T13:00:58;8.68;;;7.32;;
64791;SDS011;51226;47.504;19.074;2022-08-21T13:04:09;8.27;;;7.43;;
64791;SDS011;51226;47.504;19.074;2022-08-21T13:07:16;7.45;;;6.72;;
64791;SDS011;51226;47.504;19.074;2022-08-21T13:10:28;7.75;;;6.65;;
64791;SDS011;51226;47.504;19.074;2022-08-21T13:13:33;7.65;;;6.95;;
64791;SDS011;51226;47.504;19.074;2022-08-21T13:16:36;7.87;;;7.05;;
64791;SDS011;51226;47.504;19.074;2022-08-21T13:19:39;10.43;;;8.15;;
64791;SDS011;51226;47.504;19.074;2022-08-21T13:22:43;13.13;;;9.02;;
64791;SDS011;51226;47.504;19.074;2022-08-21T13:25:47;12.00;;;8.50;;
64791;SDS011;51226;47.504;19.074;2022-08-21T13:28:50;8.82;;;7.65;;
64791;SDS011;51226;47.504;19.074;2022-08-21T13:31:55;11.63;;;9.45;;
64791;SDS011;51226;47.504;19.074;2022-08-21T13:35:16;8.77;;;7.90;;
64791;SDS011;51226;47.504;19.074;2022-08-21T13:38:19;9.27;;;7.70;;
64791;SDS011;51226;47.504;19.074;2022-08-21T13:41:29;10.27;;;8.13;;
64791;SDS011;51226;47.504;19.074;2022-08-21T13:44:39;8.65;;;6.30;;
64791;SDS011;51226;47.504;19.074;2022-08-21T13:47:45;6.80;;;6.12;;
64791;SDS011;51226;47.504;19.074;2022-08-21T13:50:50;9.43;;;7.90;;
64791;SDS011;51226;47.504;19.074;2022-08-21T13:53:54;9.60;;;7.28;;
64791;SDS011;51226;47.504;19.074;2022-08-21T13:56:59;6.45;;;5.78;;
64791;SDS011;51226;47.504;19.074;2022-08-21T14:00:14;5.85;;;5.35;;
64791;SDS011;51226;47.504;19.074;2022-08-21T14:03:37;5.78;;;5.28;;
64791;SDS011;51226;47.504;19.074;2022-08-21T14:06:43;5.43;;;4.93;;
64791;SDS011;51226;47.504;19.074;2022-08-21T14:09:46;7.55;;;6.62;;
64791;SDS011;51226;47.504;19.074;2022-08-21T14:12:51;7.60;;;6.70;;
64791;SDS011;51226;47.504;19.074;2022-08-21T14:15:57;5.35;;;4.87;;
64791;SDS011;51226;47.504;19.074;2022-08-21T14:22:22;5.68;;;4.57;;
64791;SDS011;51226;47.504;19.074;2022-08-21T14:28:46;8.48;;;7.43;;
64791;SDS011;51226;47.504;19.074;2022-08-21T14:31:50;6.53;;;5.87;;
64791;SDS011;51226;47.504;19.074;2022-08-21T14:35:01;8.18;;;7.10;;
64791;SDS011;51226;47.504;19.074;2022-08-21T14:38:14;6.07;;;5.57;;
64791;SDS011;51226;47.504;19.074;2022-08-21T14:41:22;6.00;;;5.20;;
64791;SDS011;51226;47.504;19.074;2022-08-21T14:44:28;4.90;;;4.50;;
64791;SDS011;51226;47.504;19.074;2022-08-21T14:47:31;4.47;;;4.07;;
64791;SDS011;51226;47.504;19.074;2022-08-21T14:50:34;5.60;;;4.50;;
64791;SDS011;51226;47.504;19.074;2022-08-21T14:53:37;4.43;;;4.03;;
64791;SDS011;51226;47.504;19.074;2022-08-21T14:56:40;4.53;;;3.92;;
64791;SDS011;51226;47.504;19.074;2022-08-21T14:59:43;4.22;;;3.83;;
64791;SDS011;51226;47.504;19.074;2022-08-21T15:02:48;3.37;;;2.95;;
64791;SDS011;51226;47.504;19.074;2022-08-21T15:05:52;3.60;;;3.33;;
64791;SDS011;51226;47.504;19.074;2022-08-21T15:08:55;4.40;;;3.67;;
64791;SDS011;51226;47.504;19.074;2022-08-21T15:11:58;5.22;;;4.78;;
64791;SDS011;51226;47.504;19.074;2022-08-21T15:15:06;6.78;;;6.07;;
64791;SDS011;51226;47.504;19.074;2022-08-21T15:18:09;5.07;;;4.68;;
64791;SDS011;51226;47.504;19.074;2022-08-21T15:21:12;9.23;;;8.30;;
64791;SDS011;51226;47.504;19.074;2022-08-21T15:24:15;5.97;;;5.32;;
64791;SDS011;51226;47.504;19.074;2022-08-21T15:27:19;4.12;;;3.67;;
64791;SDS011;51226;47.504;19.074;2022-08-21T15:30:22;3.97;;;3.55;;
64791;SDS011;51226;47.504;19.074;2022-08-21T15:33:27;4.72;;;3.40;;
64791;SDS011;51226;47.504;19.074;2022-08-21T15:36:33;2.87;;;2.67;;
64791;SDS011;51226;47.504;19.074;2022-08-21T15:39:49;6.35;;;5.75;;
64791;SDS011;51226;47.504;19.074;2022-08-21T15:42:57;7.30;;;6.40;;
64791;SDS011;51226;47.504;19.074;2022-08-21T15:46:02;4.90;;;4.40;;
64791;SDS011;51226;47.504;19.074;2022-08-21T15:49:07;5.15;;;4.15;;
64791;SDS011;51226;47.504;19.074;2022-08-21T15:52:17;2.92;;;2.72;;
64791;SDS011;51226;47.504;19.074;2022-08-21T15:55:25;3.03;;;2.75;;
64791;SDS011;51226;47.504;19.074;2022-08-21T15:58:31;5.85;;;3.25;;
64791;SDS011;51226;47.504;19.074;2022-08-21T16:01:35;3.40;;;2.78;;
64791;SDS011;51226;47.504;19.074;2022-08-21T16:04:57;3.17;;;2.78;;
64791;SDS011;51226;47.504;19.074;2022-08-21T16:08:04;4.60;;;2.80;;
64791;SDS011;51226;47.504;19.074;2022-08-21T16:11:09;3.60;;;2.70;;
64791;SDS011;51226;47.504;19.074;2022-08-21T16:14:15;3.60;;;2.65;;
64791;SDS011;51226;47.504;19.074;2022-08-21T16:17:24;4.82;;;4.32;;
64791;SDS011;51226;47.504;19.074;2022-08-21T16:20:40;4.10;;;3.70;;
64791;SDS011;51226;47.504;19.074;2022-08-21T16:23:44;3.47;;;3.17;;
64791;SDS011;51226;47.504;19.074;2022-08-21T16:26:53;3.30;;;3.00;;
64791;SDS011;51226;47.504;19.074;2022-08-21T16:30:03;4.62;;;3.00;;
64791;SDS011;51226;47.504;19.074;2022-08-21T16:33:21;3.70;;;2.62;;
64791;SDS011;51226;47.504;19.074;2022-08-21T16:36:32;3.45;;;3.03;;
64791;SDS011;51226;47.504;19.074;2022-08-21T16:39:35;4.10;;;3.28;;
64791;SDS011;51226;47.504;19.074;2022-08-21T16:42:43;3.55;;;3.00;;
64791;SDS011;51226;47.504;19.074;2022-08-21T16:45:47;3.60;;;3.10;;
64791;SDS011;51226;47.504;19.074;2022-08-21T16:48:55;6.57;;;5.07;;
64791;SDS011;51226;47.504;19.074;2022-08-21T16:52:02;3.15;;;2.75;;
64791;SDS011;51226;47.504;19.074;2022-08-21T16:55:14;3.72;;;3.20;;
64791;SDS011;51226;47.504;19.074;2022-08-21T16:58:41;4.18;;;3.25;;
64791;SDS011;51226;47.504;19.074;2022-08-21T17:01:49;3.72;;;3.30;;
64791;SDS011;51226;47.504;19.074;2022-08-21T17:04:58;3.87;;;3.10;;
64791;SDS011;51226;47.504;19.074;2022-08-21T17:08:01;3.47;;;3.15;;
64791;SDS011;51226;47.504;19.074;2022-08-21T17:11:05;3.85;;;2.97;;
64791;SDS011;51226;47.504;19.074;2022-08-21T17:14:36;3.50;;;2.92;;
64791;SDS011;51226;47.504;19.074;2022-08-21T17:17:48;3.90;;;3.25;;
64791;SDS011;51226;47.504;19.074;2022-08-21T17:20:58;4.43;;;3.72;;
64791;SDS011;51226;47.504;19.074;2022-08-21T17:24:01;3.50;;;3.20;;
64791;SDS011;51226;47.504;19.074;2022-08-21T17:27:06;4.03;;;2.92;;
64791;SDS011;51226;47.504;19.074;2022-08-21T17:30:12;4.65;;;3.03;;
64791;SDS011;51226;47.504;19.074;2022-08-21T17:33:20;3.70;;;2.80;;
64791;SDS011;51226;47.504;19.074;2022-08-21T17:36:28;3.55;;;2.28;;
64791;SDS011;51226;47.504;19.074;2022-08-21T17:39:36;4.03;;;2.62;;
64791;SDS011;51226;47.504;19.074;2022-08-21T17:42:40;4.90;;;2.42;;
64791;SDS011;51226;47.504;19.074;2022-08-21T17:45:45;4.05;;;2.50;;
64791;SDS011;51226;47.504;19.074;2022-08-21T17:48:48;2.37;;;2.03;;
64791;SDS011;51226;47.504;19.074;2022-08-21T17:51:54;3.78;;;2.22;;
64791;SDS011;51226;47.504;19.074;2022-08-21T17:55:01;4.65;;;2.47;;
64791;SDS011;51226;47.504;19.074;2022-08-21T17:58:09;4.53;;;3.83;;
64791;SDS011;51226;47.504;19.074;2022-08-21T18:01:19;4.82;;;3.70;;
64791;SDS011;51226;47.504;19.074;2022-08-21T18:04:28;4.95;;;2.90;;
64791;SDS011;51226;47.504;19.074;2022-08-21T18:07:35;16.05;;;12.77;;
64791;SDS011;51226;47.504;19.074;2022-08-21T18:10:38;6.93;;;5.55;;
64791;SDS011;51226;47.504;19.074;2022-08-21T18:13:46;3.60;;;3.28;;
64791;SDS011;51226;47.504;19.074;2022-08-21T18:16:49;4.28;;;3.33;;
64791;SDS011;51226;47.504;19.074;2022-08-21T18:19:52;6.28;;;3.28;;
64791;SDS011;51226;47.504;19.074;2022-08-21T18:22:56;6.03;;;2.90;;
64791;SDS011;51226;47.504;19.074;2022-08-21T18:26:00;5.20;;;3.00;;
64791;SDS011;51226;47.504;19.074;2022-08-21T18:29:09;5.50;;;2.83;;
64791;SDS011;51226;47.504;19.074;2022-08-21T18:32:16;4.28;;;3.20;;
64791;SDS011;51226;47.504;19.074;2022-08-21T18:35:33;3.15;;;2.42;;
64791;SDS011;51226;47.504;19.074;2022-08-21T18:38:40;3.08;;;2.87;;
64791;SDS011;51226;47.504;19.074;2022-08-21T18:41:46;4.32;;;2.70;;
64791;SDS011;51226;47.504;19.074;2022-08-21T18:44:57;3.37;;;2.97;;
64791;SDS011;51226;47.504;19.074;2022-08-21T18:48:07;6.75;;;4.28;;
64791;SDS011;51226;47.504;19.074;2022-08-21T18:51:13;9.57;;;5.25;;
64791;SDS011;51226;47.504;19.074;2022-08-21T18:54:17;4.87;;;3.30;;
64791;SDS011;51226;47.504;19.074;2022-08-21T18:57:20;3.30;;;3.00;;
64791;SDS011;51226;47.504;19.074;2022-08-21T19:00:25;3.42;;;3.12;;
64791;SDS011;51226;47.504;19.074;2022-08-21T19:03:34;3.10;;;2.42;;
64791;SDS011;51226;47.504;19.074;2022-08-21T19:06:39;3.25;;;2.55;;
64791;SDS011;51226;47.504;19.074;2022-08-21T19:09:47;3.62;;;2.72;;
64791;SDS011;51226;47.504;19.074;2022-08-21T19:13:15;3.37;;;2.72;;
64791;SDS011;51226;47.504;19.074;2022-08-21T19:16:23;5.37;;;2.33;;
64791;SDS011;51226;47.504;19.074;2022-08-21T19:19:27;3.87;;;3.45;;
64791;SDS011;51226;47.504;19.074;2022-08-21T19:22:42;3.75;;;3.12;;
64791;SDS011;51226;47.504;19.074;2022-08-21T19:26:06;6.43;;;5.32;;
64791;SDS011;51226;47.504;19.074;2022-08-21T19:29:10;4.55;;;3.33;;
64791;SDS011;51226;47.504;19.074;2022-08-21T19:32:21;3.62;;;2.53;;
64791;SDS011;51226;47.504;19.074;2022-08-21T19:35:25;3.95;;;3.20;;
64791;SDS011;51226;47.504;19.074;2022-08-21T19:38:28;3.40;;;3.10;;
64791;SDS011;51226;47.504;19.074;2022-08-21T19:41:34;3.37;;;2.78;;
64791;SDS011;51226;47.504;19.074;2022-08-21T19:44:38;4.22;;;2.97;;
64791;SDS011;51226;47.504;19.074;2022-08-21T19:47:46;3.30;;;2.97;;
64791;SDS011;51226;47.504;19.074;2022-08-21T19:50:50;3.78;;;3.35;;
64791;SDS011;51226;47.504;19.074;2022-08-21T19:53:53;4.32;;;3.22;;
64791;SDS011;51226;47.504;19.074;2022-08-21T19:57:03;4.57;;;3.00;;
64791;SDS011;51226;47.504;19.074;2022-08-21T20:00:08;4.90;;;2.87;;
64791;SDS011;51226;47.504;19.074;2022-08-21T20:03:13;4.68;;;2.97;;
64791;SDS011;51226;47.504;19.074;2022-08-21T20:06:15;2.90;;;2.53;;
64791;SDS011;51226;47.504;19.074;2022-08-21T20:09:19;3.42;;;2.97;;
64791;SDS011;51226;47.504;19.074;2022-08-21T20:12:24;10.70;;;9.35;;
64791;SDS011;51226;47.504;19.074;2022-08-21T20:15:28;10.52;;;9.05;;
64791;SDS011;51226;47.504;19.074;2022-08-21T20:18:31;3.70;;;3.40;;
64791;SDS011;51226;47.504;19.074;2022-08-21T20:21:37;3.60;;;2.87;;
64791;SDS011;51226;47.504;19.074;2022-08-21T20:25:01;2.83;;;2.50;;
64791;SDS011;51226;47.504;19.074;2022-08-21T20:28:04;4.28;;;2.37;;